createdAt,value
2023-03-28T00:03:49.961Z,71.90
2023-03-28T00:08:55.848Z,72.00
2023-03-28T00:14:01.867Z,72.00
2023-03-28T00:19:09.664Z,72.10
2023-03-28T00:24:17.856Z,71.90
2023-03-28T00:29:26.217Z,72.00
2023-03-28T00:34:29.724Z,72.10
2023-03-28T00:39:34.627Z,72.00
2023-03-28T00:44:49.353Z,71.90
2023-03-28T00:49:55.655Z,72.00
2023-03-28T00:55:02.229Z,72.00
2023-03-28T01:00:07.759Z,72.20
2023-03-28T01:05:12.035Z,72.10
2023-03-28T01:10:17.420Z,72.00
2023-03-28T01:15:21.226Z,72.10
2023-03-28T01:21:04.918Z,72.10
2023-03-28T01:26:46.421Z,72.20
2023-03-28T02:09:19.485Z,72.20
2023-03-28T02:14:48.114Z,72.20
2023-03-28T02:20:24.966Z,72.10
2023-03-28T02:25:57.075Z,72.10
2023-03-28T02:31:15.364Z,72.10
2023-03-28T02:36:34.514Z,72.20
2023-03-28T02:41:57.844Z,72.20
2023-03-28T02:47:17.331Z,72.20
2023-03-28T02:52:36.916Z,72.20
2023-03-28T02:57:47.535Z,72.10
2023-03-28T03:02:53.191Z,72.10
2023-03-28T03:07:57.413Z,72.10
2023-03-28T03:13:02.305Z,72.20
2023-03-28T03:18:06.254Z,72.20
2023-03-28T03:23:11.072Z,72.10
2023-03-28T03:28:16.310Z,72.20
2023-03-28T03:33:20.206Z,72.20
2023-03-28T03:38:26.014Z,72.30
2023-03-28T03:43:31.369Z,72.30
2023-03-28T03:48:36.825Z,72.20
2023-03-28T03:53:41.070Z,72.30
2023-03-28T03:58:50.181Z,72.20
2023-03-28T04:03:54.709Z,72.20
2023-03-28T04:09:03.744Z,72.20
2023-03-28T04:14:30.380Z,72.20
2023-03-28T04:19:52.371Z,72.20
2023-03-28T04:24:56.808Z,72.20
2023-03-28T04:30:15.720Z,72.20
2023-03-28T04:35:37.638Z,72.20
2023-03-28T04:40:41.134Z,72.20
2023-03-28T04:45:59.518Z,72.20
2023-03-28T04:51:03.323Z,72.20
2023-03-28T04:56:09.106Z,72.20
2023-03-28T05:01:14.675Z,72.20
2023-03-28T05:06:47.758Z,72.20
2023-03-28T05:11:51.592Z,72.20
2023-03-28T05:16:56.984Z,72.20
2023-03-28T05:22:23.544Z,72.20
2023-03-28T05:27:28.644Z,72.20
2023-03-28T05:32:33.965Z,72.20
2023-03-28T05:37:41.790Z,72.20
2023-03-28T05:42:46.362Z,72.20
2023-03-28T05:47:56.228Z,72.20
2023-03-28T05:53:00.683Z,72.20
2023-03-28T05:58:04.488Z,72.30
2023-03-28T06:03:17.435Z,72.10
2023-03-28T06:08:22.505Z,72.20
2023-03-28T06:13:26.413Z,72.10
2023-03-28T06:18:32.030Z,72.20
2023-03-28T06:23:37.054Z,73.00
2023-03-28T06:28:41.039Z,72.10
2023-03-28T06:33:58.454Z,72.10
2023-03-28T06:39:02.381Z,72.10
2023-03-28T06:44:07.793Z,72.10
2023-03-28T06:49:31.386Z,72.10
2023-03-28T06:54:53.697Z,72.10
2023-03-28T06:59:57.395Z,72.10
2023-03-28T07:05:14.378Z,72.10
2023-03-28T07:10:18.304Z,72.10
2023-03-28T07:15:21.981Z,72.10
2023-03-28T07:20:27.746Z,72.10
2023-03-28T07:25:32.490Z,72.10
2023-03-28T07:30:36.156Z,72.10
2023-03-28T07:35:44.532Z,72.10
2023-03-28T07:40:50.427Z,72.10
2023-03-28T07:45:54.204Z,72.10
2023-03-28T07:51:00.513Z,72.10
2023-03-28T07:56:05.258Z,72.10
2023-03-28T08:01:23.931Z,72.10
2023-03-28T08:06:39.853Z,72.10
2023-03-28T08:11:45.968Z,72.10
2023-03-28T08:16:49.458Z,72.20
2023-03-28T08:21:54.329Z,72.10
2023-03-28T08:26:57.823Z,72.00
2023-03-28T08:32:03.907Z,72.10
2023-03-28T08:37:08.842Z,72.10
2023-03-28T08:42:49.427Z,72.10
2023-03-28T08:48:09.072Z,72.00
2023-03-28T08:53:26.456Z,72.10
2023-03-28T08:58:39.906Z,72.00
2023-03-28T09:03:43.584Z,72.10
2023-03-28T09:09:21.936Z,72.10
2023-03-28T09:15:14.750Z,72.10
2023-03-28T09:20:26.988Z,72.00
2023-03-28T09:25:41.701Z,72.00
2023-03-28T09:30:50.790Z,72.00
2023-03-28T09:35:59.032Z,71.90
2023-03-28T09:41:15.646Z,71.90
2023-03-28T09:46:43.664Z,71.90
2023-03-28T09:52:16.955Z,71.90
2023-03-28T09:57:22.182Z,71.80
2023-03-28T10:02:32.961Z,71.90
2023-03-28T10:07:48.733Z,71.80
2023-03-28T10:13:12.635Z,71.80
2023-03-28T10:18:22.953Z,71.80
2023-03-28T10:23:51.691Z,71.80
2023-03-28T10:29:04.678Z,71.80
2023-03-28T10:34:27.672Z,71.80
2023-03-28T10:40:02.475Z,71.70
2023-03-28T10:45:35.305Z,71.70
2023-03-28T10:50:46.221Z,71.70
2023-03-28T10:56:07.369Z,71.70
2023-03-28T11:01:24.838Z,71.70
2023-03-28T11:06:44.580Z,71.60
2023-03-28T11:12:05.508Z,71.60
2023-03-28T11:17:19.094Z,71.70
2023-03-28T11:22:49.750Z,71.70
2023-03-28T11:28:08.984Z,71.60
2023-03-28T11:33:25.433Z,71.60
2023-03-28T11:38:40.379Z,71.70
2023-03-28T11:43:51.479Z,71.60
2023-03-28T11:49:11.584Z,71.50
2023-03-28T11:54:20.029Z,71.60
2023-03-28T11:59:32.243Z,71.60
2023-03-28T12:04:49.831Z,71.60
2023-03-28T12:10:10.037Z,71.50
2023-03-28T12:15:18.117Z,71.50
2023-03-28T12:20:47.518Z,71.50
2023-03-28T12:26:21.657Z,71.40
2023-03-28T12:31:35.603Z,71.40
2023-03-28T12:36:55.417Z,71.40
2023-03-28T12:42:00.411Z,71.50
2023-03-28T12:47:09.051Z,71.50
2023-03-28T12:52:21.873Z,71.50
2023-03-28T12:57:48.156Z,71.50
2023-03-28T13:03:34.096Z,71.60
2023-03-28T13:09:05.775Z,71.40
2023-03-28T13:14:35.661Z,71.40
2023-03-28T13:19:48.098Z,71.50
2023-03-28T13:24:53.076Z,71.60
2023-03-28T13:30:06.181Z,71.50
2023-03-28T13:35:43.996Z,71.50
2023-03-28T13:40:54.514Z,71.50
2023-03-28T13:46:03.477Z,71.50
2023-03-28T13:51:13.154Z,71.60
2023-03-28T13:56:25.453Z,71.60
2023-03-28T14:01:38.060Z,71.60
2023-03-28T14:06:43.128Z,71.60
2023-03-28T14:11:49.348Z,71.60
2023-03-28T14:16:54.759Z,71.50
2023-03-28T14:21:58.269Z,71.60
2023-03-28T14:27:14.161Z,71.60
2023-03-28T14:32:27.409Z,71.70
2023-03-28T14:37:31.268Z,71.70
2023-03-28T14:42:37.129Z,71.60
2023-03-28T14:47:42.316Z,71.60
2023-03-28T14:52:45.789Z,71.70
2023-03-28T14:57:54.095Z,71.70
2023-03-28T15:02:58.250Z,71.70
2023-03-28T15:08:03.905Z,71.70
2023-03-28T15:13:15.367Z,71.70
2023-03-28T15:18:25.316Z,71.70
2023-03-28T15:23:32.551Z,71.80
2023-03-28T15:28:37.668Z,71.70
2023-03-28T15:33:41.092Z,71.80
2023-03-28T15:38:44.945Z,71.80
2023-03-28T15:44:19.950Z,71.80
2023-03-28T15:49:23.643Z,71.90
2023-03-28T15:54:31.280Z,71.80
2023-03-28T15:59:40.184Z,71.80
2023-03-28T16:05:00.697Z,71.80
2023-03-28T16:10:05.321Z,71.90
2023-03-28T16:15:16.704Z,71.90
2023-03-28T16:20:30.771Z,71.90
2023-03-28T16:25:41.466Z,71.70
2023-03-28T16:30:47.118Z,71.80
2023-03-28T16:35:50.552Z,71.80
2023-03-28T16:40:54.029Z,71.80
2023-03-28T16:45:58.967Z,71.90
2023-03-28T16:51:05.114Z,71.90
2023-03-28T16:56:11.985Z,71.80
2023-03-28T17:01:19.325Z,71.90
2023-03-28T17:06:23.462Z,71.90
2023-03-28T17:11:27.606Z,71.90
2023-03-28T17:16:32.585Z,72.00
2023-03-28T17:21:37.423Z,71.80
2023-03-28T17:26:40.870Z,72.00
2023-03-28T17:31:46.524Z,72.00
2023-03-28T17:36:51.438Z,71.90
2023-03-28T17:41:54.848Z,71.90
2023-03-28T17:47:00.815Z,71.90
2023-03-28T17:52:04.392Z,72.00
2023-03-28T17:57:08.255Z,72.00
2023-03-28T18:02:13.522Z,71.90
2023-03-28T18:07:17.593Z,71.90
2023-03-28T18:12:21.397Z,72.00
2023-03-28T18:17:26.258Z,72.00
2023-03-28T18:22:30.296Z,72.10
2023-03-28T18:27:33.881Z,72.00
2023-03-28T18:32:38.778Z,72.10
2023-03-28T18:37:42.164Z,72.00
2023-03-28T18:42:45.752Z,72.10
2023-03-28T18:47:50.548Z,72.10
2023-03-28T18:52:54.099Z,72.10
2023-03-28T18:57:58.152Z,72.10
2023-03-28T19:03:03.105Z,72.20
2023-03-28T19:08:07.006Z,72.10
2023-03-28T19:13:10.438Z,72.20
2023-03-28T19:18:15.377Z,72.10
2023-03-28T19:23:18.809Z,72.10
2023-03-28T19:28:23.726Z,72.10
2023-03-28T19:33:29.753Z,72.10
2023-03-28T19:38:35.936Z,72.20
2023-03-28T19:43:39.377Z,72.10
2023-03-28T19:48:44.301Z,72.10
2023-03-28T19:53:47.711Z,72.10
2023-03-28T19:58:51.869Z,72.20
2023-03-28T20:03:56.676Z,72.10
2023-03-28T20:09:00.144Z,72.10
2023-03-28T20:14:03.541Z,72.10
2023-03-28T20:19:08.357Z,72.10
2023-03-28T20:24:12.034Z,72.00
2023-03-28T20:29:15.482Z,72.10
2023-03-28T20:34:20.754Z,72.10
2023-03-28T20:39:26.407Z,72.00
2023-03-28T20:44:30.555Z,72.20
2023-03-28T20:49:35.949Z,72.10
2023-03-28T20:54:40.171Z,72.00
2023-03-28T20:59:43.652Z,72.10
2023-03-28T21:04:48.983Z,72.10
2023-03-28T21:09:53.579Z,72.10
2023-03-28T21:14:56.988Z,72.10
2023-03-28T21:20:04.851Z,72.10
2023-03-28T21:25:11.899Z,72.10
2023-03-28T21:30:16.636Z,72.90
2023-03-28T21:35:21.494Z,72.20
2023-03-28T21:40:25.520Z,72.10
2023-03-28T21:45:28.971Z,72.10
2023-03-28T21:50:33.831Z,72.20
2023-03-28T21:55:37.630Z,72.20
2023-03-28T22:00:41.938Z,72.10
2023-03-28T22:05:46.897Z,72.20
2023-03-28T22:10:54.729Z,72.20
2023-03-28T22:15:59.664Z,72.30
2023-03-28T22:21:05.663Z,72.30
2023-03-28T22:26:09.249Z,72.30
2023-03-28T22:31:13.111Z,72.20
2023-03-28T22:36:18.102Z,72.30
2023-03-28T22:41:21.984Z,72.30
2023-03-28T22:46:26.012Z,72.30
2023-03-28T22:51:30.993Z,72.30
2023-03-28T22:56:34.405Z,72.20
2023-03-28T23:01:38.257Z,72.30
2023-03-28T23:06:43.267Z,72.30
2023-03-28T23:11:47.114Z,72.30
2023-03-28T23:16:51.401Z,72.30
2023-03-28T23:21:56.844Z,72.40
2023-03-28T23:27:00.402Z,72.30
2023-03-28T23:32:03.890Z,72.20
2023-03-28T23:37:10.078Z,72.30
2023-03-28T23:42:13.727Z,72.40
2023-03-28T23:47:19.524Z,72.40
2023-03-28T23:52:24.368Z,72.40
2023-03-28T23:57:28.633Z,72.40
